createdAt,value
2023-02-05T00:02:00.938Z,98740.72
2023-02-05T00:04:05.074Z,98745.94
2023-02-05T00:06:09.175Z,98751.03
2023-02-05T00:08:13.316Z,98741.44
2023-02-05T00:10:17.656Z,98742.38
2023-02-05T00:12:21.475Z,98741.53
2023-02-05T00:14:25.613Z,98738.94
2023-02-05T00:16:29.534Z,98738.94
2023-02-05T00:18:34.753Z,98737.28
2023-02-05T00:20:38.640Z,98735.41
2023-02-05T00:22:42.830Z,98737.06
2023-02-05T00:24:46.651Z,98731.00
2023-02-05T00:26:50.539Z,98735.41
2023-02-05T00:28:54.647Z,98740.63
2023-02-05T00:30:58.581Z,98732.81
2023-02-05T00:33:02.436Z,98737.06
2023-02-05T00:35:07.971Z,98731.13
2023-02-05T00:37:11.946Z,98727.69
2023-02-05T00:39:16.016Z,98736.34
2023-02-05T00:41:20.050Z,98731.13
2023-02-05T00:43:24.140Z,98733.72
2023-02-05T00:45:32.273Z,98743.22
2023-02-05T00:47:37.335Z,98744.06
2023-02-05T00:49:41.189Z,98741.53
2023-02-05T00:51:46.334Z,98738.94
2023-02-05T00:53:50.145Z,98748.53
2023-02-05T00:55:53.938Z,98749.59
2023-02-05T00:57:58.005Z,98751.25
2023-02-05T01:00:01.875Z,98758.13
2023-02-05T01:02:05.909Z,98753.84
2023-02-05T01:04:09.732Z,98757.41
2023-02-05T01:06:13.896Z,98756.44
2023-02-05T01:08:19.130Z,98753.03
2023-02-05T01:10:22.955Z,98761.66
2023-02-05T01:12:27.127Z,98757.41
2023-02-05T01:14:31.283Z,98766.06
2023-02-05T01:16:35.100Z,98754.81
2023-02-05T01:18:39.012Z,98760.94
2023-02-05T01:20:42.984Z,98751.47
2023-02-05T01:22:46.794Z,98758.34
2023-02-05T01:24:53.931Z,98758.34
2023-02-05T01:26:58.627Z,98760.94
2023-02-05T01:29:02.441Z,98761.91
2023-02-05T01:31:07.100Z,98765.41
2023-02-05T01:33:10.934Z,98761.91
2023-02-05T01:35:14.731Z,98763.78
2023-02-05T01:37:18.527Z,98761.16
2023-02-05T01:39:22.321Z,98756.78
2023-02-05T01:41:27.638Z,98769.91
2023-02-05T01:43:31.602Z,98763.78
2023-02-05T01:46:12.365Z,98765.41
2023-02-05T01:48:16.185Z,98755.84
2023-02-05T01:50:23.295Z,98756.06
2023-02-05T01:52:27.172Z,98760.44
2023-02-05T01:54:31.384Z,98749.19
2023-02-05T01:56:38.614Z,98745.72
2023-02-05T01:58:46.181Z,98738.75
2023-02-05T02:00:50.068Z,98740.50
2023-02-05T02:02:53.893Z,98740.63
2023-02-05T02:05:01.513Z,98738.03
2023-02-05T02:07:05.375Z,98727.72
2023-02-05T02:09:09.279Z,98730.31
2023-02-05T02:11:17.031Z,98731.25
2023-02-05T02:13:22.268Z,98718.09
2023-02-05T02:15:27.238Z,98714.69
2023-02-05T02:17:31.403Z,98719.06
2023-02-05T02:19:41.094Z,98719.88
2023-02-05T02:22:23.234Z,98712.91
2023-02-05T02:25:03.516Z,98712.28
2023-02-05T02:27:17.932Z,98714.91
2023-02-05T02:29:27.049Z,98702.78
2023-02-05T02:31:32.881Z,98705.41
2023-02-05T02:33:40.021Z,98704.56
2023-02-05T02:35:47.207Z,98708.97
2023-02-05T02:37:57.718Z,98704.69
2023-02-05T02:40:05.081Z,98701.00
2023-02-05T02:42:14.073Z,98700.19
2023-02-05T02:44:20.514Z,98702.06
2023-02-05T02:46:29.053Z,98697.69
2023-02-05T02:48:33.676Z,98702.06
2023-02-05T02:50:38.918Z,98697.91
2023-02-05T02:52:44.583Z,98690.09
2023-02-05T02:54:49.597Z,98694.34
2023-02-05T02:56:55.602Z,98685.72
2023-02-05T02:59:02.366Z,98678.84
2023-02-05T03:01:07.434Z,98685.81
2023-02-05T03:03:13.368Z,98684.97
2023-02-05T03:05:22.210Z,98685.94
2023-02-05T03:07:29.807Z,98681.66
2023-02-05T03:09:38.112Z,98676.44
2023-02-05T03:11:42.042Z,98681.56
2023-02-05T03:13:47.493Z,98672.06
2023-02-05T03:15:53.463Z,98669.34
2023-02-05T03:18:00.155Z,98666.00
2023-02-05T03:20:10.776Z,98666.00
2023-02-05T03:22:14.614Z,98660.81
2023-02-05T03:24:18.409Z,98662.47
2023-02-05T03:26:25.452Z,98663.53
2023-02-05T03:28:32.946Z,98666.97
2023-02-05T03:30:41.753Z,98666.00
2023-02-05T03:32:54.655Z,98659.97
2023-02-05T03:35:08.555Z,98666.97
2023-02-05T03:37:17.894Z,98667.88
2023-02-05T03:39:28.474Z,98658.44
2023-02-05T03:41:54.907Z,98652.38
2023-02-05T03:44:06.430Z,98657.59
2023-02-05T03:46:13.792Z,98664.38
2023-02-05T03:48:39.523Z,98670.50
2023-02-05T03:50:50.185Z,98661.03
2023-02-05T03:52:58.652Z,98658.31
2023-02-05T03:55:07.667Z,98649.66
2023-02-05T03:57:16.574Z,98647.06
2023-02-05T03:59:22.571Z,98648.81
2023-02-05T04:01:27.557Z,98658.44
2023-02-05T04:03:31.456Z,98644.56
2023-02-05T04:05:35.986Z,98646.31
2023-02-05T04:07:41.964Z,98648.00
2023-02-05T04:09:47.402Z,98652.38
2023-02-05T04:11:51.618Z,98645.41
2023-02-05T04:13:57.898Z,98659.25
2023-02-05T04:16:01.722Z,98652.38
2023-02-05T04:18:05.812Z,98661.97
2023-02-05T04:20:11.520Z,98663.72
2023-02-05T04:22:15.684Z,98666.34
2023-02-05T04:24:23.779Z,98665.41
2023-02-05T04:26:27.631Z,98662.81
2023-02-05T04:28:37.786Z,98648.94
2023-02-05T04:30:42.809Z,98643.72
2023-02-05T04:32:48.170Z,98632.47
2023-02-05T04:34:54.260Z,98637.69
2023-02-05T04:36:58.231Z,98638.50
2023-02-05T04:39:04.326Z,98633.28
2023-02-05T04:41:09.678Z,98635.06
2023-02-05T04:43:13.517Z,98636.84
2023-02-05T04:45:17.336Z,98631.66
2023-02-05T04:47:21.311Z,98641.13
2023-02-05T04:49:25.206Z,98646.22
2023-02-05T04:51:29.005Z,98654.88
2023-02-05T04:53:32.827Z,98656.66
2023-02-05T04:55:36.809Z,98654.03
2023-02-05T04:57:42.426Z,98645.41
2023-02-05T04:59:46.221Z,98637.59
2023-02-05T05:01:50.035Z,98634.97
2023-02-05T05:03:53.830Z,98628.09
2023-02-05T05:05:57.638Z,98636.75
2023-02-05T05:08:01.648Z,98642.69
2023-02-05T05:10:07.082Z,98642.69
2023-02-05T05:12:10.881Z,98647.06
2023-02-05T05:14:16.056Z,98640.19
2023-02-05T05:16:20.466Z,98645.31
2023-02-05T05:18:24.320Z,98652.97
2023-02-05T05:20:29.747Z,98663.31
2023-02-05T05:22:33.566Z,98658.94
2023-02-05T05:24:37.371Z,98660.72
2023-02-05T05:26:43.802Z,98658.00
2023-02-05T05:28:47.600Z,98654.44
2023-02-05T05:30:52.818Z,98660.47
2023-02-05T05:32:56.658Z,98662.25
2023-02-05T05:35:00.465Z,98661.44
2023-02-05T05:37:04.315Z,98664.88
2023-02-05T05:39:25.864Z,98663.09
2023-02-05T05:41:47.521Z,98663.94
2023-02-05T05:43:51.946Z,98658.59
2023-02-05T05:45:57.178Z,98664.66
2023-02-05T05:48:01.360Z,98672.47
2023-02-05T05:50:05.821Z,98676.84
2023-02-05T05:52:09.655Z,98673.22
2023-02-05T05:54:13.443Z,98666.31
2023-02-05T05:56:17.569Z,98673.22
2023-02-05T05:58:21.397Z,98681.84
2023-02-05T06:00:25.370Z,98680.06
2023-02-05T06:02:30.585Z,98681.84
2023-02-05T06:04:34.518Z,98686.09
2023-02-05T06:06:38.340Z,98690.50
2023-02-05T06:08:42.230Z,98693.94
2023-02-05T06:10:46.024Z,98684.22
2023-02-05T06:12:50.291Z,98683.41
2023-02-05T06:14:54.087Z,98690.41
2023-02-05T06:16:57.924Z,98686.84
2023-02-05T06:19:03.082Z,98692.78
2023-02-05T06:21:07.064Z,98698.81
2023-02-05T06:23:10.954Z,98703.09
2023-02-05T06:25:15.552Z,98706.53
2023-02-05T06:27:19.708Z,98709.88
2023-02-05T06:29:23.531Z,98712.56
2023-02-05T06:31:27.491Z,98716.84
2023-02-05T06:33:31.382Z,98722.91
2023-02-05T06:35:36.888Z,98723.72
2023-02-05T06:37:48.065Z,98721.13
2023-02-05T06:39:51.896Z,98723.72
2023-02-05T06:41:55.728Z,98724.56
2023-02-05T06:43:59.514Z,98719.38
2023-02-05T06:46:03.356Z,98729.66
2023-02-05T06:48:07.450Z,98739.16
2023-02-05T06:50:11.877Z,98734.78
2023-02-05T06:52:17.507Z,98731.25
2023-02-05T06:54:21.427Z,98739.06
2023-02-05T06:56:25.368Z,98736.47
2023-02-05T06:58:29.214Z,98742.50
2023-02-05T07:00:33.129Z,98751.03
2023-02-05T07:02:37.012Z,98748.44
2023-02-05T07:04:40.821Z,98752.69
2023-02-05T07:06:44.634Z,98751.78
2023-02-05T07:08:49.840Z,98757.81
2023-02-05T07:10:53.638Z,98749.03
2023-02-05T07:12:57.478Z,98760.31
2023-02-05T07:15:01.398Z,98763.75
2023-02-05T07:17:05.304Z,98767.19
2023-02-05T07:19:09.131Z,98771.47
2023-02-05T07:21:16.692Z,98772.31
2023-02-05T07:23:20.506Z,98773.94
2023-02-05T07:25:25.724Z,98773.03
2023-02-05T07:27:29.518Z,98776.47
2023-02-05T07:29:33.470Z,98776.38
2023-02-05T07:31:37.366Z,98775.53
2023-02-05T07:33:41.220Z,98783.34
2023-02-05T07:35:45.015Z,98789.28
2023-02-05T07:37:48.829Z,98792.78
2023-02-05T07:39:52.655Z,98795.25
2023-02-05T07:41:58.186Z,98796.09
2023-02-05T07:44:09.095Z,98781.19
2023-02-05T07:46:14.168Z,98787.97
2023-02-05T07:48:18.119Z,98798.38
2023-02-05T07:50:21.913Z,98794.00
2023-02-05T07:52:25.726Z,98802.66
2023-02-05T07:54:29.545Z,98794.00
2023-02-05T07:56:33.348Z,98790.13
2023-02-05T07:58:38.589Z,98785.66
2023-02-05T08:00:42.501Z,98803.91
2023-02-05T08:02:46.355Z,98798.69
2023-02-05T08:04:50.168Z,98795.03
2023-02-05T08:06:53.961Z,98793.16
2023-02-05T08:08:58.567Z,98789.72
2023-02-05T08:11:03.478Z,98786.25
2023-02-05T08:13:07.283Z,98795.13
2023-02-05T08:15:12.693Z,98783.78
2023-02-05T08:17:16.499Z,98775.94
2023-02-05T08:19:20.312Z,98773.34
2023-02-05T08:21:24.712Z,98779.38
2023-02-05T08:23:28.588Z,98791.38
2023-02-05T08:25:32.651Z,98793.88
2023-02-05T08:27:37.623Z,98805.22
2023-02-05T08:29:41.524Z,98803.56
2023-02-05T08:31:46.763Z,98817.34
2023-02-05T08:33:53.071Z,98814.84
2023-02-05T08:35:58.694Z,98805.13
2023-02-05T08:38:02.579Z,98802.53
2023-02-05T08:40:07.369Z,98799.00
2023-02-05T08:42:11.254Z,98797.41
2023-02-05T08:44:15.068Z,98796.56
2023-02-05T08:46:21.177Z,98799.09
2023-02-05T08:48:26.625Z,98783.44
2023-02-05T08:50:30.685Z,98789.47
2023-02-05T08:52:34.573Z,98777.28
2023-02-05T08:54:38.374Z,98765.38
2023-02-05T08:56:42.605Z,98759.00
2023-02-05T08:58:46.541Z,98761.41
2023-02-05T09:00:50.518Z,98757.25
2023-02-05T09:02:54.401Z,98752.88
2023-02-05T09:05:08.427Z,98754.66
2023-02-05T09:07:12.926Z,98759.97
2023-02-05T09:09:16.829Z,98755.56
2023-02-05T09:11:22.440Z,98752.88
2023-02-05T09:13:26.885Z,98746.69
2023-02-05T09:15:31.351Z,98742.31
2023-02-05T09:17:35.584Z,98744.81
2023-02-05T09:19:40.086Z,98744.22
2023-02-05T09:21:45.248Z,98744.91
2023-02-05T09:23:49.107Z,98747.53
2023-02-05T09:25:53.098Z,98733.78
2023-02-05T09:27:57.296Z,98732.81
2023-02-05T09:30:01.147Z,98735.53
2023-02-05T09:32:05.308Z,98747.75
2023-02-05T09:34:09.103Z,98734.72
2023-02-05T09:36:15.853Z,98733.66
2023-02-05T09:38:21.015Z,98736.41
2023-02-05T09:40:28.347Z,98741.47
2023-02-05T09:42:35.774Z,98739.81
2023-02-05T09:44:55.419Z,98703.41
2023-02-05T09:47:05.643Z,98707.38
2023-02-05T09:49:13.877Z,98708.19
2023-02-05T09:51:20.082Z,98711.38
2023-02-05T09:53:25.459Z,98701.66
2023-02-05T09:55:30.700Z,98707.06
2023-02-05T09:57:36.242Z,98703.84
2023-02-05T09:59:41.391Z,98721.28
2023-02-05T10:01:47.378Z,98715.63
2023-02-05T10:03:54.306Z,98722.63
2023-02-05T10:06:11.258Z,98726.31
2023-02-05T10:08:19.292Z,98728.19
2023-02-05T10:10:27.499Z,98714.19
2023-02-05T10:12:44.829Z,98709.13
2023-02-05T10:14:58.035Z,98715.41
2023-02-05T10:17:24.642Z,98714.91
2023-02-05T10:19:52.113Z,98715.97
2023-02-05T10:22:10.967Z,98698.53
2023-02-05T10:24:35.698Z,98697.03
2023-02-05T10:26:44.084Z,98699.63
2023-02-05T10:29:21.178Z,98688.19
2023-02-05T10:31:36.945Z,98677.75
2023-02-05T10:33:47.996Z,98670.44
2023-02-05T10:35:58.204Z,98671.00
2023-02-05T10:38:03.312Z,98668.16
2023-02-05T10:40:19.236Z,98666.34
2023-02-05T10:42:32.663Z,98659.66
2023-02-05T10:44:40.903Z,98655.75
2023-02-05T10:46:51.522Z,98652.66
2023-02-05T10:48:58.203Z,98654.91
2023-02-05T10:51:03.404Z,98652.81
2023-02-05T10:53:07.431Z,98650.06
2023-02-05T10:55:12.905Z,98653.19
2023-02-05T10:57:18.605Z,98646.72
2023-02-05T10:59:27.016Z,98650.59
2023-02-05T11:01:33.846Z,98647.03
2023-02-05T11:03:38.063Z,98635.47
2023-02-05T11:05:43.864Z,98638.06
2023-02-05T11:07:48.984Z,98637.66
2023-02-05T11:09:53.430Z,98640.00
2023-02-05T11:11:58.223Z,98635.25
2023-02-05T11:14:03.988Z,98636.44
2023-02-05T11:16:09.638Z,98636.44
2023-02-05T11:18:24.077Z,98645.09
2023-02-05T11:20:32.129Z,98641.34
2023-02-05T11:22:39.405Z,98626.00
2023-02-05T11:24:43.720Z,98612.34
2023-02-05T11:26:49.324Z,98606.75
2023-02-05T11:28:53.294Z,98612.09
2023-02-05T11:30:58.516Z,98607.31
2023-02-05T11:33:31.707Z,98599.78
2023-02-05T11:35:35.657Z,98586.34
2023-02-05T11:37:40.192Z,98585.66
2023-02-05T11:39:44.615Z,98585.69
2023-02-05T11:41:51.929Z,98576.38
2023-02-05T11:43:55.886Z,98575.00
2023-02-05T11:46:26.752Z,98586.34
2023-02-05T11:48:38.207Z,98569.97
2023-02-05T11:50:42.253Z,98574.44
2023-02-05T11:52:46.718Z,98573.63
2023-02-05T11:54:51.358Z,98588.22
2023-02-05T12:00:22.055Z,98585.84
2023-02-05T12:02:34.489Z,98578.91
2023-02-05T12:04:45.599Z,98580.84
2023-02-05T12:06:52.085Z,98570.50
2023-02-05T12:08:55.986Z,98569.94
2023-02-05T12:11:09.535Z,98588.13
2023-02-05T12:13:22.814Z,98601.78
2023-02-05T12:15:28.494Z,98592.59
2023-02-05T12:17:36.901Z,98569.03
